This is the latest recevied weather packets stored in our database for station/object N2WH. If no packets are shown the sender has not sent any weather packets the latest 1 day(s).
| Time | Temp. | Humidity | Pressure | Rain* | Wind** | Luminosity | Snow |
|---|---|---|---|---|---|---|---|
| 1777985227 | 18.33° C | 66% | 1011.7 hPa | 0 mm | 0 m/s | 95 W/m² | - |
| 1777984924 | 17.78° C | 67% | 1011.5 hPa | 0 mm | 0 m/s | 85 W/m² | - |
| 1777984619 | 17.78° C | 67% | 1011.6 hPa | 0 mm | 0.45 m/s, 149° | 142 W/m² | - |
| 1777984316 | 17.22° C | 68% | 1011.5 hPa | 0 mm | 0 m/s | 255 W/m² | - |
| 1777984013 | 17.22° C | 70% | 1011.8 hPa | 0 mm | 0.45 m/s, 148° | 249 W/m² | - |
| 1777983710 | 16.67° C | 71% | 1011.8 hPa | 0 mm | 0 m/s | 217 W/m² | - |
| 1777983407 | 16.67° C | 72% | 1011.8 hPa | 0 mm | 0.45 m/s, 144° | 195 W/m² | - |
| 1777983103 | 16.11° C | 75% | 1011.9 hPa | 0 mm | 0 m/s | 193 W/m² | - |
| 1777982799 | 15.56° C | 76% | 1012 hPa | 0 mm | 0 m/s | 187 W/m² | - |
| 1777982496 | 15.56° C | 77% | 1011.9 hPa | 0 mm | 0 m/s | 80 W/m² | - |
| 1777982190 | 15° C | 79% | 1012.2 hPa | 0 mm | 0 m/s | 96 W/m² | - |
| 1777981888 | 15° C | 80% | 1012.1 hPa | 0 mm | 0 m/s | 59 W/m² | - |
| 1777981584 | 14.44° C | 81% | 1011.8 hPa | 0 mm | 0 m/s | 50 W/m² | - |
| 1777981281 | 13.89° C | 82% | 1011.9 hPa | 0 mm | 0 m/s | 54 W/m² | - |
| 1777980977 | 13.89° C | 82% | 1011.7 hPa | 0 mm | 0 m/s | 50 W/m² | - |
| 1777980674 | 13.89° C | 82% | 1011.9 hPa | 0 mm | 0 m/s | 42 W/m² | - |
| 1777980370 | 13.89° C | 81% | 1012 hPa | 0 mm | 0 m/s | 48 W/m² | - |
| 1777980068 | 13.89° C | 80% | 1011.8 hPa | 0 mm | 0 m/s | 35 W/m² | - |
| 1777979762 | 14.44° C | 80% | 1011.5 hPa | 0 mm | 0 m/s | 34 W/m² | - |
| 1777979458 | 14.44° C | 81% | 1011.6 hPa | 0 mm | 0 m/s | 40 W/m² | - |
| 1777979155 | 13.89° C | 81% | 1011.3 hPa | 0 mm | 0 m/s | 42 W/m² | - |
| 1777978852 | 13.89° C | 81% | 1011.5 hPa | 0 mm | 0 m/s | 41 W/m² | - |
| 1777978548 | 13.89° C | 82% | 1011.4 hPa | 0 mm | 0 m/s | 40 W/m² | - |
| 1777978244 | 13.89° C | 79% | 1011.7 hPa | 0 mm | 0 m/s | 26 W/m² | - |
| 1777977941 | 13.89° C | 79% | 1011.7 hPa | 0 mm | 0 m/s | 11 W/m² | - |
* Rain latest hour (hover to see other rain measurements)
** Current wind speed in m/s (hover to see current wind gust speed)